úvod | hledej | debata | forum | MMČR | MČR HA | foto | foto Fryba | video | Le Mans Serie | piloti a týmy | Evropa | inzerce | motorshop | historie | okruhy | odkazy

Rechberg 07 - Results

Výsledky závodu ME

  1.    5   VILARINO Ander            E   Reynard Mugen F3000               D,E2-3000       1:58.149   1:59.424   3:57.573     0:00.000
  2.    7   BORMOLINI Fausto          I   REYNARD 95D                       D,E2-3000       2:02.789   2:01.221   4:04.010     0:06.437
  3.    6   SZASZ Laszlo              H   REYNARD Zytek F3000               D,E2-3000       2:03.479   2:03.505   4:06.984     0:09.411
  4.    8   KRAMSKY Otakar           CZ   REYNARD K - 07                    D,E2-3000       2:03.721   2:05.496   4:09.217     0:11.644
  5.    9   NAPIONE Renzo             I   Formula Nippon Reynard K02        D,E2-3000       2:05.679   2:04.461   4:10.140     0:12.567
  6.    1   WALDY Hermann             A   REYNARD F3000 94D                 D,E2+3000       2:08.330   2:04.251   4:12.581     0:15.008
  7.    10  NEVERIL Dusan            CZ   LOLA JUDD T96 / 50                D,E2-3000       2:06.463   2:08.399   4:14.862     0:17.289
  8.    18  SVOBODA Milan            CZ   DALLARA STV 2000                  D,E2-2000       2:08.566   2:07.962   4:16.528     0:18.955
  9.    12  CINELLI Franco            I   LOLA Mugen Formel 3000            D,E2-3000       2:09.309   2:07.395   4:16.704     0:19.131
 10.    4   STANKOVIC Vladimir       SLO  LOLA F3000                        D,E2+3000       2:08.856   2:08.197   4:17.053     0:19.480
 11.    15  MANGINI Armando           I   LOLA Zytek F3000                  D,E2-3000       2:08.556   2:08.990   4:17.546     0:19.973
 12.    38  WEIDINGER Jörg            D   OSELLA BMW P20S                   C,CN,C3+2000    2:10.187   2:09.519   4:19.706     0:22.133
 13.    13  ROASIO Maurizio           I   LOLA F3000                        D,E2-3000       2:10.625   2:10.269   4:20.894     0:23.321
 14.    34  ÖPPINGER Erich            D   OSELLA PA 16                      C,CN,C3+2000    2:11.757   2:14.527   4:26.284     0:28.711
 15.    42  PAILER Felix              A   LANCIA Delta Integrale Turbo      E1 OSK+2000     2:15.173   2:11.739   4:26.912     0:29.339
 16.    31  VILARINO Andres           E   NORMA N20                         CN EBM-2000     2:14.821   2:13.793   4:28.614     0:31.041
 17.    46  GABAT Andreas Ing.        A   FORD Gabat Cosworth               E1 OSK+2000     2:15.025   2:14.230   4:29.255     0:31.682
 18.    45  LABER Hans-Peter          A   FORD Gabat Cosworth               E1 OSK+2000     2:15.172   2:14.163   4:29.335     0:31.762
 19.    37  EVANS Lanfranco           I   OSELLA PA 20 S                    CN EBM-3000     2:15.648   2:14.635   4:30.283     0:32.710
 20.    19  STEINER Bianca            H   RENAULT F 2000                    D,E2-2000       2:17.638   2:16.109   4:33.747     0:36.174
 21.    52  LUGER Roland              A   OPEL Omega EVO 500                E1 OSK+2000     2:24.474   2:22.765   4:47.239     0:49.666
 22.    92  LANDL Gerhard             A   BMW 318 iS                        E1 OSK-2000     2:24.052   2:24.563   4:48.615     0:51.042
 23.   126  BICCIATO Rudi             I   MITSUBISHI Lancer EVO             A+3000          2:25.491   2:24.994   4:50.485     0:52.912
 24.   124  HILGER Alfred             D   BMW E36 M3                        A+3000          2:25.825   2:24.978   4:50.803     0:53.230
 25.    2   GALLI Hubert              A   REYNARD BMW CanAm Typ 1           D,E2+3000       2:26.046   2:25.281   4:51.327     0:53.754
 26.    21  TARMANN Josef             A   DALLARA F304                      D,E2-2000       2:26.067   2:25.845   4:51.912     0:54.339
 27.    35  BREBSOM Nicolas          LUX  OSELLA PA 20 S                    C,CN,C3+2000    2:29.909   2:22.706   4:52.615     0:55.042
 28.   123  PULIC Niko               HR   BMW M3                            A+3000          2:28.259   2:24.622   4:52.881     0:55.308
 29.   150  JURENA Peter             SK   MITSUBISHI Lancer EVO IX          N+3000          2:27.419   2:27.001   4:54.420     0:56.847
 30.   146  JAKES Miroslav           CZ   MITSUBISHI Lancer EVO 9           N+3000          2:27.633   2:27.197   4:54.830     0:57.257
 31.    93  MARKO Andreas             A   LEDINEGG GOLF GTI 16V             E1 OSK-1600     2:27.343   2:27.977   4:55.320     0:57.747
 32.    23  STOLLNBERGER Andreas      A   Formel OPEL LOTUS                 D,E2-2000       2:28.218   2:27.822   4:56.040     0:58.467
 33.   125  LISKA Vladimir           CZ   BMW M3 E36                        A+3000          2:27.589   2:28.959   4:56.548     0:58.975
 34.    72  WELS Michael              A   VW SIROCCO 16V                    E1 OSK-2000     2:29.534   2:29.279   4:58.813     1:01.240
 35.   148  STRNAD Anton             SK   MITSUBISHI Lancer EVO 7           N+3000          2:29.444   2:29.730   4:59.174     1:01.601
 36.    55  TRAINTINGER Gottfried     A   OPEL Kadett C GT/E                E1 OSK+2000     2:30.519   2:29.368   4:59.887     1:02.314
 37.    61  HOFER Werner              A   FORD Escort Cosworth Turbo        E1 OSK+2000     2:30.213   2:29.828   5:00.041     1:02.468
 38.    32  CHAMPELOVIER Lionel       F   NORMA N20                         CN EBM-2000     2:31.250   2:28.801   5:00.051     1:02.478
 39.   122  JANIK Vaclav             CZ   BMW M3                            A+3000          2:30.767   2:29.528   5:00.295     1:02.722
 40.    59  PERMETINGER Bernhard      A   BMW E30 M3                        E1 OSK+2000     2:31.128   2:29.650   5:00.778     1:03.205
 41.   128  SCHWEIGER Christian       A   VW GOLF IV KitCar                 A-2000          2:30.922   2:30.648   5:01.570     1:03.997
 42.    80  KÜBERL Christian          A   BMW M3                            E1 OSK-2000     2:31.989   2:29.799   5:01.788     1:04.215
 43.   149  KRUG Rainer               D   BMW M3                            N+3000          2:31.237   2:30.626   5:01.863     1:04.290
 44.   144  DOUBEK Vladimir          CZ   BMW M3                            N+3000          2:31.022   2:31.098   5:02.120     1:04.547
 45.   145  VOVES Jiri               CZ   SUBARU Imprezza                   N+3000          2:30.859   2:31.554   5:02.413     1:04.840
 46.   151  WANEK Roland              D   BMW M3 Coupe´                     N+3000          2:31.012   2:31.669   5:02.681     1:05.108
 47.    56  HÄHNEL Helmut             A   LANCIA Delta HF Integrale         E1 OSK+2000     2:32.521   2:30.831   5:03.352     1:05.779
 48.    27  PACHER Georg              A   Eco Tech Power Pucherl            D,E2-1600       2:33.538   2:31.274   5:04.812     1:07.239
 49.    78  GROSSAUER Jürgen          A   SUZUKI Baleno                     E1 OSK-2000     2:33.129   2:31.815   5:04.944     1:07.371
 50.    3   PRANDL Wolfgang Ing.      A   LOLA T96 / 50                     D,E2+3000       2:33.535   2:31.830   5:05.365     1:07.792
 51.    79  BLASL Hermann             A   OPEL Kadett C                     E1 OSK-2000     2:32.639   2:33.158   5:05.797     1:08.224
 52.    60  KARL Werner               A   VW Golf 1 Turbo                   E1 OSK+2000     2:33.993   2:32.763   5:06.756     1:09.183
 53.   143  VODICKA Richard          CZ   BMW M3                            N+3000          2:33.901   2:34.113   5:08.014     1:10.441
 54.   113  GIOBBI Claudio            I   ALFA ROMEO 156 GTA                S20-2000        2:34.665   2:34.085   5:08.750     1:11.177
 55.    96  ROIDER Franz              A   FORD Fiesta RS                    E1 OSK-1600     2:34.921   2:34.388   5:09.309     1:11.736
 56.    94  EDER Erich                A   VW Golf GTI 16V                   E1 OSK-1600     2:36.968   2:33.826   5:10.794     1:13.221
 57.   129  MARTINEK Rene             A   HONDA Civic Type R                A-2000          2:35.416   2:36.244   5:11.660     1:14.087
 58.   140  FISCHER Martin            A   PEUGEOT 106 KitCar                A-1600          2:37.683   2:35.380   5:13.063     1:15.490
 59.    75  PROBST Franz              A   VW Golf 1 16V                     E1 OSK-2000     2:39.291   2:33.824   5:13.115     1:15.542
 60.   102  KRAMMER Jo                A   ALFA ROMEO 33 16V                 E1 OSK-1600     2:35.673   2:37.593   5:13.266     1:15.693
 61.    58  WIEDENHOFER Stefan        A   MAZDA 323 GTR                     E1 OSK+2000     2:37.953   2:35.533   5:13.486     1:15.913
 62.    24  EIBL Erich                A   Renault F2000                     D,E2-2000       2:37.115   2:36.747   5:13.862     1:16.289
 63.   159  AUER Micheal              A   HONDA Civic Type R                N-2000          2:37.083   2:36.889   5:13.972     1:16.399
 64.   158  PREK Ales                SLO  HONDA Civic Type R                N-2000          2:38.155   2:37.864   5:16.019     1:18.446
 65.   141  MICHALKO Manuel           A   CITROEN Saxo VTS                  A-1600          2:38.267   2:38.445   5:16.712     1:19.139
 66.   136  RITZBERGER Kurt           A   PEUGEOT 306                       A-2000          2:38.183   2:39.349   5:17.532     1:19.959
 67.   154  DIMITRIJEVIC Dejan       HR   RENAULT Clio Williams             N-2000          2:38.962   2:38.912   5:17.874     1:20.301
 68.    82  JUD Werner                A   VW Golf 2 GTI 16V                 E1 OSK-2000     2:40.595   2:37.961   5:18.556     1:20.983
 69.    77  ENDRESS Michael           A   AUDI 80 Coupe                     E1 OSK-2000     2:39.014   2:42.115   5:21.129     1:23.556
 70.   138  WEBER Erich               A   VW GOLF 5  Diesel                 A-D+2000        2:42.040   2:39.647   5:21.687     1:24.114
 71.   114  LOSMANN David            CZ   PEUGEOT 306 S16                   SP-2000         2:39.676   2:42.141   5:21.817     1:24.244
 72.   153  BUTORAC Dino             HR   RENAULT Clio Williams             N-2000          2:41.746   2:40.349   5:22.095     1:24.522
 73.   132  PRATL Jürgen              A   RENAULT Clio Williams             A-2000          2:40.016   2:42.208   5:22.224     1:24.651
 74.   130  HERZOG Helmut             A   RENAULT Megane Coupe              A-2000          2:42.396   2:40.491   5:22.887     1:25.314
 75.    14  TERSCHL Wolfgang          A   Pro Sport 3000                    D,E2-3000       2:42.196   2:41.261   5:23.457     1:25.884
 76.   116  JERMANOVA Gabriela       CZ   OPEL Astra OPC SP                 SP-2000         2:42.652   2:41.647   5:24.299     1:26.726
 77.   147  JESCHEK Gerd              A   BMW E 36-2 3,2                    N+3000          2:43.558   2:40.782   5:24.340     1:26.767
 78.   160  WALDY Hermann Jun.        A   HONDA Civic Type R                N-2000          2:43.542   2:43.022   5:26.564     1:28.991
 79.    66  NAUSCHNEGG Reinhold       A   OPEL CALIBRA Turbo                E1 OSK+2000     2:44.877   2:43.164   5:28.041     1:30.468
 80.   110  LATTNER Andreas           A   SUZUKI Swift GTI                  E1 OSK-1400     2:44.169   2:44.319   5:28.488     1:30.915
 81.    98  NÖMAYR Erich              A   OPEL Kadett C GT/E                E1 OSK-1600     2:44.771   2:45.479   5:30.250     1:32.677
 82.   121  BRANDI Silvano            I   CHEVROLETTE CORVETE C5R           GT+3000         2:48.101   2:44.908   5:33.009     1:35.436
 83.    85  KOGLER Werner             A   VW Golf 1  Typ 17                 E1 OSK-2000     2:47.635   2:45.605   5:33.240     1:35.667
 84.   118  LOS Jiri                 CZ   OPEL Astra OPC SP                 SP-2000         2:47.431   2:45.995   5:33.426     1:35.853
 85.    88  HAIDER Franz              A   VW Golf 1  Typ 17                 E1 OSK-2000     2:48.279   2:45.778   5:34.057     1:36.484
 86.   139  HOLZER Dieter             A   VW GOLF 5  Diesel                 A-D+2000        2:48.326   2:47.716   5:36.042     1:38.469
 87.    86  ORASCHE Patrick           A   VW Golf 2 GTI 16V                 E1 OSK-2000     2:48.897   2:47.457   5:36.354     1:38.781
 88.   161  WINTER Patrick            A   FORD Fiesta ST                    N-2000          2:49.973   2:49.068   5:39.041     1:41.468
 89.   163  KRAPESCH Alexander        A   Ford Fiesta ST                    N-2000          2:50.206   2:50.060   5:40.266     1:42.693
 90.   134  GRASMUGG Heribert         A   RENAULT Megane Coupe              A-2000          2:51.576   2:49.707   5:41.283     1:43.710
 91.    64  KARNER Hubert             A   VW Käfer                          E1 OSK+2000     2:50.632   2:50.896   5:41.528     1:43.955
 92.    26  WIPFLER Anton             A   Renault F2000                     D,E2-2000       2:51.897   2:49.653   5:41.550     1:43.977
 93.   162  WOLLINGER Daniel          A   FORD Fiesta ST                    N-2000          2:51.558   2:50.981   5:42.539     1:44.966
 94.   164  LEITGEB Christoph         A   Ford Fiesta ST                    N-2000          2:52.034   2:51.273   5:43.307     1:45.734
 95.    69  DEINBACHER Peter          A   FORD SIERRA Cosworth              E1 OSK+2000     2:52.442   2:52.331   5:44.773     1:47.200
 96.   156  BREI Hans                 A   HONDA Civic Type R                N-2000          2:55.816   2:50.164   5:45.980     1:48.407
 97.   157  ZAUNER Johann             A   HONDA Civic Type R                N-2000          2:52.676   2:53.326   5:46.002     1:48.429
 98.    89  SCHAUPERL Karl Heinz      A   VW Käfer                          E1 OSK-2000     2:53.835   2:53.442   5:47.277     1:49.704
 99.   133  MÜHLBACHER Friedrich      A   SEAT Ibiza                        A-2000          2:52.408   2:55.315   5:47.723     1:50.150
 100.  166  WINDSTEIG Werner          A   CITROEN Saxo VTS                  N-1600          2:56.478   2:56.116   5:52.594     1:55.021
 101.   90  PÖLZGUTER Andreas         A   OPEL Kadett E GSI                 E1 OSK-2000     2:59.756   2:53.587   5:53.343     1:55.770
 102.  101  LEITNER Josef             A   VW Golf GTI 16V                   E1 OSK-1600     2:57.853   2:56.708   5:54.561     1:56.988
 103.   67  LANDMANN Jochen           A   BMW 325i                          E1 OSK+2000     2:58.341   2:58.599   5:56.940     1:59.367
 104.   87  WERNLE Adi                A   DAIHATSU Charade GTTI Turbo       E1 OSK-2000     2:58.400   2:59.905   5:58.305     2:00.732
 105.  196  KÖNIG Hans-Anton         CH   AUDI 50                           E1 OSK-1400     3:01.207   3:00.430   6:01.637     2:04.064
 106.   25  KORP Wolfgang             A   Reynard Formel Ford               D,E2-2000       3:06.913   3:06.997   6:13.910     2:16.337
 107.   99  KARL August               A   VW Käfer                          E1 OSK-1600     4:07.069   4:22.744   8:29.813     4:32.240
 DNS    22  TOTH Jozef               CZ   DALLARA STV 302                   D,E2-2000                              1000001
 DNS    28  TSCHAGER Franz            A   Formula Gloria S7P                D,E2-1600                              1000001
 DNS    44  PREGARTNER Herbert        A   FERSTL Porsche 911 Turbo          E1 OSK+2000                            1000001
 DNS    48  NOWAK Franz               A   LANCIA Delta Integrale 16V        E1 OSK+2000                            1000001
 DNS    57  SCHLEGL Reinhard          A   FORD Escort Cosworth Turbo        E1 OSK+2000                            1000001
 DNS    62  FRANK Alexander           A   LANCIA Delta Integrale            E1 OSK+2000                            1000001
 DNS    63  JELINEK Michael           A   SUBARU Imprezza WRX GT            E1 OSK+2000                            1000001
 DNS    73  BRANDT Markus Dr.         A   FORD Puma                         E1 OSK-2000                            1000001
 DNS    74  FIAUSCH Heiko             A   OPEL Astra 16V                    E1 OSK-2000                            1000001
 DNS    81  GOLLINGER Martin          A   VW Automeister Golf 1             E1 OSK-2000                            1000001
 DNS    97  HOLZMANN Thomas           A   ALFA ROMEO 145 16V                E1 OSK-1600                            1000001
 DNS   105  UNGER Robert              A   SUZUKI Swift                      E1 OSK-1400                            1000001
 DNS   106  RETSCHITZEGGER Johann     A   PEUGEOT 205                       E1 OSK-1400                            1000001
 DNS   111  FUCHSBICHLER Peter        A   VW Polo 86                        E1 OSK-1400                            1000001
 DNS   131  KREMAIER Rainer           A   PEUGEOT 306                       A-2000                                 1000001
 DNS   135  RABELHOFER Stefan         A   RENAULT Megane Coupe              A-2000                                 1000001
 DNS   142  FISCHER Alfred            A   PEUGEOT 106 KitCar                A-1600                                 1000001
 OUT   104  AFLENZER Manfred          A   VW Polo 16V                       E1 OSK-1400      1000003   2:25.687    1000003
 OUT    54  KLINK Janos               H   FORD Escort Cosworth Turbo        E1 OSK+2000     2:28.399    1000003    1000003
 OUT    50  KOSCIUSZKO Jan           PL   MITSUBISHI Lancer EVO             E1 OSK+2000     2:28.916    1000003    1000003
 OUT    68  FUCHS Manfred             A   LANCIA Delta HF Integrale 16V     E1 OSK+2000     2:37.714    1000003    1000003
 OUT   119  JERMAN Martin            CZ   ALFA ROMEO 147 SP                 SP-2000         2:43.880    1000003    1000003
 OUT    51  BINDER Karl-Heinz         A   FORD Sierra RS 500                E1 OSK+2000      1000003               1000003
 OUT    53  KROISLEITNER Vinzenz      A   FORD Gabat Cosworth               E1 OSK+2000      1000003               1000003
 OUT    71  EDER Roland               A   VW Golf GTI 16V                   E1 OSK-2000      1000003               1000003
 OUT    95  STRASSER Norbert          A   Toyota Corolla AE 86              E1 OSK-1600      1000003               1000003
 OUT   109  FASERL Michael            A   VW Polo                           E1 OSK-1400      1000003               1000003
 OUT   117  VOJACEK Petr             CZ   ALFA ROMEO 147 SP                 SP-2000          1000003               1000003


Autor: Roman Krejčí  (Všechny články autora)
Rubrika: Evropa  (Všechny články rubriky)




Článek publikován: 30.4.2007
Přečteno: 6988 x
Stránka aktualizována: 29.3.2011

Související články:



REDAKCE: Roman Krejčí All rights reserved, Ó 2002-2006


Stránky vrchy.com jsou nezávislým informačním zdrojem o závodech do vrchu a na okruzích

[CNW:Counter] TOPlist